Time;durP1;ratioP1;P1;durP2;ratioP2;P2;SDS_P1;SDS_P2;PMS_P1;PMS_P2;Temp;Humidity;BMP_temperature;BMP_pressure;BME280_temperature;BME280_humidity;BME280_pressure;Samples;Min_cycle;Max_cycle;Signal;HPM_P1;HPM_P2
2022/09/06 00:00:03;;;;;;;6.05;2.70;;;25.20;65.70;;;;;;4993850;28;20073;-70
2022/09/06 00:02:38;;;;;;;7.53;3.20;;;25.30;65.70;;;;;;4989300;28;20397;-70
2022/09/06 00:05:05;;;;;;;5.85;2.65;;;25.20;66.10;;;;;;4991250;28;21479;-70
2022/09/06 00:07:30;;;;;;;2.90;2.30;;;25.30;66.00;;;;;;4986316;28;20030;-69
2022/09/06 00:09:56;;;;;;;7.00;2.90;;;25.20;66.30;;;;;;4991481;28;20084;-69
2022/09/06 00:12:23;;;;;;;5.72;2.72;;;25.20;66.00;;;;;;4989200;28;20034;-70
2022/09/06 00:14:49;;;;;;;7.20;2.88;;;25.10;65.90;;;;;;4990705;28;20030;-70
2022/09/06 00:17:15;;;;;;;5.47;2.97;;;25.10;65.70;;;;;;4991933;28;20118;-69
2022/09/06 00:19:41;;;;;;;6.43;2.80;;;25.10;65.90;;;;;;4990948;28;20030;-70
2022/09/06 00:22:07;;;;;;;6.70;2.40;;;25.10;66.00;;;;;;4993039;28;20042;-70
2022/09/06 00:24:33;;;;;;;8.32;2.60;;;25.00;66.30;;;;;;4994485;28;20109;-68
2022/09/06 00:26:59;;;;;;;3.88;2.40;;;25.00;66.50;;;;;;4994240;28;20036;-68
2022/09/06 00:29:25;;;;;;;5.07;2.70;;;25.00;66.40;;;;;;4994787;28;20533;-68
2022/09/06 00:31:50;;;;;;;5.65;2.72;;;25.00;66.60;;;;;;4987931;28;20038;-68
2022/09/06 00:34:16;;;;;;;4.60;2.53;;;24.90;66.20;;;;;;4986690;28;20027;-69
2022/09/06 00:36:41;;;;;;;6.35;2.60;;;24.90;66.30;;;;;;4977051;28;20471;-75
2022/09/06 00:39:07;;;;;;;8.68;3.15;;;24.90;66.50;;;;;;4974966;28;20053;-69
2022/09/06 00:41:33;;;;;;;3.95;2.40;;;24.90;66.30;;;;;;4977038;28;20117;-69
2022/09/06 00:43:58;;;;;;;9.25;3.00;;;24.80;66.60;;;;;;4977059;28;20081;-69
2022/09/06 00:46:26;;;;;;;5.65;2.60;;;24.90;66.50;;;;;;4974316;28;20034;-69
2022/09/06 00:49:02;;;;;;;8.25;2.80;;;24.80;66.50;;;;;;4971346;28;20030;-69
2022/09/06 00:51:29;;;;;;;5.07;2.78;;;24.80;66.40;;;;;;4976401;28;20030;-69
2022/09/06 00:53:56;;;;;;;10.38;3.10;;;24.70;66.40;;;;;;4969546;28;20085;-68
2022/09/06 00:56:23;;;;;;;9.38;3.08;;;24.70;66.40;;;;;;4977387;28;20126;-69
2022/09/06 00:58:49;;;;;;;6.70;2.85;;;24.70;66.30;;;;;;4974383;28;20390;-69
2022/09/06 01:01:15;;;;;;;6.45;2.63;;;24.70;66.50;;;;;;4976050;28;20130;-69
2022/09/06 01:03:41;;;;;;;3.80;2.45;;;24.70;66.40;;;;;;4985824;28;20050;-69
2022/09/06 01:06:24;;;;;;;4.65;2.65;;;24.60;66.70;;;;;;4973654;28;20113;-69
2022/09/06 01:09:05;;;;;;;7.32;3.03;;;24.60;66.80;;;;;;4975811;28;20035;-69
2022/09/06 01:11:47;;;;;;;4.40;2.78;;;24.60;66.90;;;;;;4976820;28;20513;-68
2022/09/06 01:14:23;;;;;;;4.53;3.03;;;24.60;67.10;;;;;;4975968;28;20030;-69
2022/09/06 01:17:15;;;;;;;4.90;2.63;;;24.60;66.80;;;;;;4975918;28;20034;-69
2022/09/06 01:19:59;;;;;;;4.32;2.88;;;24.50;67.10;;;;;;4974458;28;20023;-69
2022/09/06 01:22:42;;;;;;;10.05;2.95;;;24.50;67.00;;;;;;4975401;28;20470;-69
2022/09/06 01:25:20;;;;;;;9.68;3.20;;;24.50;67.20;;;;;;4974689;28;20028;-69
2022/09/06 01:28:15;;;;;;;6.38;3.03;;;24.50;67.40;;;;;;4969153;28;20061;-68
2022/09/06 01:31:04;;;;;;;5.82;2.60;;;24.50;67.50;;;;;;4992643;28;20038;-69
2022/09/06 01:33:33;;;;;;;4.10;2.90;;;24.40;67.30;;;;;;4983791;28;20027;-69
2022/09/06 01:36:05;;;;;;;8.70;3.03;;;24.40;67.20;;;;;;4974879;28;20062;-69
2022/09/06 01:38:31;;;;;;;5.53;2.60;;;24.40;67.20;;;;;;4982657;28;20147;-68
2022/09/06 01:40:56;;;;;;;7.45;2.83;;;24.40;67.10;;;;;;4985378;28;20121;-69
2022/09/06 01:43:33;;;;;;;7.82;3.03;;;24.40;67.20;;;;;;4974063;28;20478;-69
2022/09/06 01:46:14;;;;;;;4.80;2.80;;;24.30;66.80;;;;;;4983689;28;20034;-69
2022/09/06 01:49:07;;;;;;;7.28;3.33;;;24.40;67.00;;;;;;4974534;28;20030;-69
2022/09/06 01:51:59;;;;;;;5.55;3.60;;;24.30;67.00;;;;;;4962635;28;20042;-69
2022/09/06 01:54:46;;;;;;;7.70;2.97;;;24.30;67.20;;;;;;4985748;28;20545;-69
2022/09/06 01:57:24;;;;;;;5.13;3.10;;;24.30;67.20;;;;;;4984992;28;20034;-69
2022/09/06 02:00:12;;;;;;;7.63;3.15;;;24.30;67.20;;;;;;4972723;28;20042;-68
2022/09/06 02:02:41;;;;;;;5.93;3.15;;;24.20;67.10;;;;;;4989887;28;20122;-69
2022/09/06 02:05:20;;;;;;;4.60;3.08;;;24.20;67.20;;;;;;4974421;28;20129;-69
2022/09/06 02:07:47;;;;;;;9.98;2.92;;;24.20;67.20;;;;;;4973118;28;20089;-68
2022/09/06 02:10:45;;;;;;;8.52;3.20;;;24.10;67.30;;;;;;4973683;28;20066;-68
2022/09/06 02:13:14;;;;;;;7.57;3.13;;;24.20;67.20;;;;;;4973351;28;20042;-68
2022/09/06 02:15:48;;;;;;;6.55;3.50;;;24.10;67.60;;;;;;4974562;28;20041;-68
2022/09/06 02:18:46;;;;;;;5.63;2.80;;;24.10;67.30;;;;;;4973653;28;20059;-68
2022/09/06 02:21:15;;;;;;;8.20;3.20;;;24.10;67.40;;;;;;4960187;28;20058;-68
2022/09/06 02:23:43;;;;;;;5.82;3.25;;;24.10;67.40;;;;;;4974129;28;20046;-69
2022/09/06 02:26:22;;;;;;;6.35;3.75;;;24.10;67.50;;;;;;4973674;28;20035;-68
2022/09/06 02:28:48;;;;;;;5.57;3.28;;;24.00;67.40;;;;;;4972383;28;20043;-68
2022/09/06 02:31:32;;;;;;;4.97;3.28;;;24.00;67.40;;;;;;4973736;28;20042;-68
2022/09/06 02:33:58;;;;;;;;;;;24.00;67.40;;;;;;4977422;28;20035;-68
2022/09/06 02:36:24;;;;;;;8.77;3.42;;;24.00;67.80;;;;;;4980903;28;19956;-68
2022/09/06 02:38:50;;;;;;;13.35;3.33;;;24.00;67.40;;;;;;4986537;28;20566;-68
2022/09/06 02:41:21;;;;;;;8.32;3.50;;;24.00;67.60;;;;;;4984837;28;20125;-68
2022/09/06 02:43:47;;;;;;;9.50;3.50;;;23.90;67.70;;;;;;4985489;28;20478;-68
2022/09/06 02:46:12;;;;;;;12.57;3.75;;;23.90;67.60;;;;;;4973250;28;20034;-68
2022/09/06 02:48:38;;;;;;;6.50;3.05;;;24.00;67.80;;;;;;4973496;28;20026;-67
2022/09/06 02:51:05;;;;;;;12.00;3.30;;;23.90;67.80;;;;;;4977167;28;20035;-68
2022/09/06 02:53:31;;;;;;;6.28;3.60;;;23.90;67.70;;;;;;4976360;28;20031;-68
2022/09/06 02:55:57;;;;;;;5.38;3.30;;;23.90;67.80;;;;;;4978354;28;20470;-68
2022/09/06 02:58:23;;;;;;;8.30;3.60;;;23.80;68.00;;;;;;4976934;28;20130;-69
2022/09/06 03:00:50;;;;;;;5.72;3.65;;;23.80;67.80;;;;;;4977175;28;20050;-69
2022/09/06 03:03:15;;;;;;;6.80;3.47;;;23.80;68.20;;;;;;4977066;28;20041;-68
2022/09/06 03:05:44;;;;;;;6.40;3.72;;;23.80;68.10;;;;;;4963873;28;20042;-68
2022/09/06 03:08:10;;;;;;;9.90;3.55;;;23.80;68.20;;;;;;4985792;28;20026;-68
2022/09/06 03:10:38;;;;;;;10.25;3.72;;;23.80;68.20;;;;;;4981759;28;20080;-68
2022/09/06 03:13:03;;;;;;;4.70;3.67;;;23.80;68.30;;;;;;4995467;28;20507;-68
2022/09/06 03:15:29;;;;;;;7.85;4.68;;;23.80;68.40;;;;;;4994593;28;20073;-68
2022/09/06 03:17:58;;;;;;;12.75;3.85;;;23.70;68.30;;;;;;4996845;28;20026;-68
2022/09/06 03:20:24;;;;;;;6.47;3.83;;;23.70;68.50;;;;;;4990133;28;20174;-68
2022/09/06 03:22:50;;;;;;;5.68;3.80;;;23.70;68.50;;;;;;4986120;28;20393;-68
2022/09/06 03:25:16;;;;;;;7.20;3.88;;;23.70;68.50;;;;;;4979413;28;20038;-68
2022/09/06 03:27:42;;;;;;;6.90;4.35;;;23.70;68.60;;;;;;4976969;28;20041;-68
2022/09/06 03:30:09;;;;;;;7.10;4.35;;;23.70;68.90;;;;;;4976219;28;20462;-68
2022/09/06 03:32:40;;;;;;;5.35;3.80;;;23.70;68.90;;;;;;4976707;28;20398;-68
2022/09/06 03:35:06;;;;;;;8.32;4.13;;;23.60;69.00;;;;;;4975369;28;20038;-68
2022/09/06 03:37:32;;;;;;;6.45;4.10;;;23.60;69.20;;;;;;4980058;28;20117;-68
2022/09/06 03:39:58;;;;;;;5.93;3.85;;;23.60;69.30;;;;;;4975533;28;20101;-68
2022/09/06 03:42:25;;;;;;;7.05;4.13;;;23.60;69.30;;;;;;4975927;28;20042;-68
2022/09/06 03:44:52;;;;;;;6.50;4.00;;;23.60;69.40;;;;;;4975881;28;20114;-68
2022/09/06 03:47:18;;;;;;;7.70;3.80;;;23.60;69.50;;;;;;4976412;28;20046;-68
2022/09/06 03:49:44;;;;;;;6.13;4.18;;;23.50;69.40;;;;;;4975140;28;20471;-68
2022/09/06 03:52:10;;;;;;;4.97;4.15;;;23.50;69.60;;;;;;4976214;28;20026;-68
2022/09/06 03:54:39;;;;;;;7.10;4.10;;;23.50;69.70;;;;;;4976161;28;20118;-68
2022/09/06 03:57:05;;;;;;;5.75;4.45;;;23.50;69.70;;;;;;4979525;28;20042;-68
2022/09/06 03:59:31;;;;;;;8.27;4.18;;;23.50;69.80;;;;;;4987837;28;20030;-68
2022/09/06 04:01:57;;;;;;;11.82;4.63;;;23.50;69.90;;;;;;4973955;28;20046;-68
2022/09/06 04:04:23;;;;;;;11.40;4.78;;;23.40;69.90;;;;;;4992487;28;20038;-68
2022/09/06 04:06:48;;;;;;;8.52;4.03;;;23.50;70.00;;;;;;4994576;28;20034;-68
2022/09/06 04:09:17;;;;;;;10.70;4.22;;;23.50;70.00;;;;;;4975996;28;20399;-68
2022/09/06 04:11:42;;;;;;;6.20;4.03;;;23.40;70.20;;;;;;4987445;28;20038;-68
2022/09/06 04:14:08;;;;;;;7.57;4.45;;;23.40;70.20;;;;;;4982058;28;20030;-68
2022/09/06 04:16:33;;;;;;;6.82;4.50;;;23.40;70.20;;;;;;4993998;28;20512;-68
2022/09/06 04:19:00;;;;;;;8.80;4.60;;;23.40;70.40;;;;;;4976180;28;20029;-68
2022/09/06 04:21:26;;;;;;;6.95;4.20;;;23.40;70.40;;;;;;4984720;28;20100;-67
2022/09/06 04:23:52;;;;;;;7.88;5.15;;;23.30;70.40;;;;;;4993896;28;20093;-68
2022/09/06 04:26:17;;;;;;;9.23;4.82;;;23.30;70.60;;;;;;4989333;28;20030;-68
2022/09/06 04:28:43;;;;;;;8.32;4.68;;;23.30;71.30;;;;;;4983712;28;20478;-67
2022/09/06 04:31:09;;;;;;;10.07;4.68;;;23.30;70.70;;;;;;4986376;28;20046;-67
2022/09/06 04:33:37;;;;;;;9.23;4.85;;;23.30;70.80;;;;;;4976177;28;20079;-67
2022/09/06 04:36:05;;;;;;;7.88;5.20;;;23.30;71.20;;;;;;4983787;28;20608;-67
2022/09/06 04:38:35;;;;;;;7.10;4.38;;;23.30;71.30;;;;;;4979647;28;20044;-69
2022/09/06 04:41:00;;;;;;;7.72;4.60;;;23.20;71.40;;;;;;4989233;28;20049;-68
2022/09/06 04:43:26;;;;;;;8.68;3.95;;;23.20;71.40;;;;;;4978287;28;20034;-67
2022/09/06 04:45:51;;;;;;;6.22;4.18;;;23.20;71.50;;;;;;4983159;28;20366;-69
2022/09/06 04:48:17;;;;;;;6.15;4.60;;;23.20;71.50;;;;;;4987026;28;20049;-70
2022/09/06 04:50:43;;;;;;;7.55;4.63;;;23.20;71.70;;;;;;4986073;28;20062;-68
2022/09/06 04:53:09;;;;;;;8.60;4.57;;;23.20;71.70;;;;;;4983609;28;20031;-67
2022/09/06 04:55:36;;;;;;;7.50;4.50;;;23.20;71.80;;;;;;4991131;28;20058;-68
2022/09/06 04:58:02;;;;;;;7.78;4.70;;;23.20;72.10;;;;;;4987309;28;20077;-68
2022/09/06 05:00:30;;;;;;;7.63;4.90;;;23.20;72.20;;;;;;4987211;28;20042;-68
2022/09/06 05:02:56;;;;;;;6.50;4.53;;;23.20;72.10;;;;;;4985332;28;20034;-68
2022/09/06 05:05:22;;;;;;;13.13;4.72;;;23.10;72.20;;;;;;4986507;28;20050;-71
2022/09/06 05:07:54;;;;;;;7.55;4.53;;;23.10;72.20;;;;;;4989274;28;20073;-68
2022/09/06 05:10:21;;;;;;;7.22;4.60;;;23.10;72.00;;;;;;4988806;28;20035;-68
2022/09/06 05:12:51;;;;;;;12.63;4.57;;;23.10;72.00;;;;;;4985655;28;20042;-68
2022/09/06 05:15:18;;;;;;;10.27;4.70;;;23.10;72.30;;;;;;4974043;28;20023;-67
2022/09/06 05:17:43;;;;;;;12.82;4.97;;;23.10;72.20;;;;;;4989043;28;20026;-67
2022/09/06 05:20:10;;;;;;;8.45;4.80;;;23.10;72.20;;;;;;4986985;28;20486;-71
2022/09/06 05:22:36;;;;;;;12.20;5.38;;;23.10;72.50;;;;;;4981319;28;20039;-70
2022/09/06 05:25:02;;;;;;;7.72;4.90;;;23.10;72.60;;;;;;4988205;28;20030;-71
2022/09/06 05:27:28;;;;;;;9.73;5.28;;;23.10;73.20;;;;;;4988618;28;20044;-71
2022/09/06 05:29:53;;;;;;;8.20;4.50;;;23.10;73.10;;;;;;4980453;28;20036;-71
2022/09/06 05:32:19;;;;;;;10.52;5.45;;;23.10;73.10;;;;;;4972670;28;20031;-72
2022/09/06 05:34:45;;;;;;;9.77;5.22;;;23.10;73.70;;;;;;4974219;28;20037;-71
2022/09/06 05:37:11;;;;;;;6.88;5.20;;;23.10;74.10;;;;;;4974179;28;20122;-71
2022/09/06 05:39:36;;;;;;;7.93;4.80;;;23.10;74.20;;;;;;4974070;28;20054;-71
2022/09/06 05:42:05;;;;;;;7.93;5.53;;;23.10;74.50;;;;;;4972282;28;20034;-71
2022/09/06 05:44:33;;;;;;;10.82;5.43;;;23.10;74.60;;;;;;4973222;28;20117;-71
2022/09/06 05:47:00;;;;;;;11.73;6.25;;;23.10;74.90;;;;;;4974436;28;20035;-71
2022/09/06 05:49:28;;;;;;;11.02;6.20;;;23.10;75.50;;;;;;4973762;28;20035;-71
2022/09/06 05:51:54;;;;;;;13.25;5.40;;;23.00;75.60;;;;;;4975194;28;20122;-71
2022/09/06 05:54:19;;;;;;;9.88;6.22;;;23.00;76.10;;;;;;4972775;28;20106;-71
2022/09/06 05:56:45;;;;;;;8.25;5.78;;;23.00;76.20;;;;;;4975187;28;20042;-71
2022/09/06 05:59:11;;;;;;;9.07;6.10;;;23.00;76.50;;;;;;4984093;28;20030;-71
2022/09/06 06:01:45;;;;;;;9.38;5.97;;;23.00;76.70;;;;;;4981725;28;20529;-71
2022/09/06 06:04:11;;;;;;;8.23;5.93;;;23.00;76.60;;;;;;4986391;28;20030;-71
2022/09/06 06:06:39;;;;;;;9.85;5.72;;;23.00;76.70;;;;;;4975239;28;20034;-70
2022/09/06 06:09:05;;;;;;;11.30;5.93;;;22.90;76.60;;;;;;4973065;28;20030;-71
2022/09/06 06:11:31;;;;;;;11.43;6.40;;;22.90;76.70;;;;;;4974199;28;20379;-71
2022/09/06 06:13:57;;;;;;;7.97;5.45;;;22.90;76.90;;;;;;4973656;28;20031;-71
2022/09/06 06:16:24;;;;;;;8.68;5.70;;;22.80;76.90;;;;;;4975178;28;20046;-71
2022/09/06 06:18:50;;;;;;;17.65;5.78;;;22.90;77.10;;;;;;4975675;28;20082;-69
2022/09/06 06:21:18;;;;;;;12.07;6.43;;;22.80;77.30;;;;;;4958207;28;20397;-72
2022/09/06 06:23:44;;;;;;;12.48;6.07;;;22.80;77.40;;;;;;4973639;28;20487;-71
2022/09/06 06:26:11;;;;;;;7.25;5.30;;;22.80;77.60;;;;;;4981974;28;20565;-71
2022/09/06 06:28:38;;;;;;;9.18;5.95;;;22.80;77.80;;;;;;4981286;28;20105;-71
2022/09/06 06:31:05;;;;;;;12.05;6.70;;;22.80;77.90;;;;;;4980450;28;20038;-71
2022/09/06 06:33:31;;;;;;;10.35;5.85;;;22.80;78.10;;;;;;4983662;28;20058;-70
2022/09/06 06:36:07;;;;;;;9.05;5.75;;;22.80;78.20;;;;;;4983182;28;20027;-70
2022/09/06 06:38:36;;;;;;;12.43;6.10;;;22.80;78.20;;;;;;4963697;28;20069;-72
2022/09/06 06:41:03;;;;;;;8.85;5.97;;;22.80;78.50;;;;;;4980503;28;20097;-70
2022/09/06 06:43:35;;;;;;;12.60;6.88;;;22.80;78.50;;;;;;4967514;28;20027;-71
2022/09/06 06:46:05;;;;;;;10.98;5.97;;;22.70;78.60;;;;;;4993341;28;20098;-71
2022/09/06 06:48:35;;;;;;;6.75;5.13;;;22.70;79.20;;;;;;4991242;28;20035;-71
2022/09/06 06:51:03;;;;;;;12.27;6.15;;;22.80;78.60;;;;;;4979208;28;20147;-71
2022/09/06 06:53:29;;;;;;;8.77;5.90;;;22.80;78.70;;;;;;4979650;28;20039;-71
2022/09/06 06:55:55;;;;;;;11.25;6.40;;;22.80;78.70;;;;;;4979621;28;20064;-70
2022/09/06 06:58:20;;;;;;;11.05;5.72;;;22.80;78.70;;;;;;4988433;28;20062;-71
2022/09/06 07:00:46;;;;;;;10.50;6.50;;;22.70;78.70;;;;;;4995924;28;20058;-70
2022/09/06 07:03:12;;;;;;;7.07;5.70;;;22.70;78.90;;;;;;4979762;28;20077;-70
2022/09/06 07:05:39;;;;;;;9.05;5.85;;;22.70;79.00;;;;;;4978293;28;20669;-70
2022/09/06 07:08:05;;;;;;;11.18;6.25;;;22.70;79.20;;;;;;4988600;28;20514;-70
2022/09/06 07:10:32;;;;;;;12.25;6.28;;;22.70;79.30;;;;;;4993094;28;20035;-70
2022/09/06 07:12:57;;;;;;;8.27;5.85;;;22.70;79.30;;;;;;4969547;28;20038;-70
2022/09/06 07:15:23;;;;;;;11.82;6.78;;;22.70;79.30;;;;;;4994684;28;20035;-70
2022/09/06 07:17:49;;;;;;;8.32;5.47;;;22.70;79.40;;;;;;4998537;28;20390;-70
2022/09/06 07:20:15;;;;;;;12.13;5.88;;;22.70;79.40;;;;;;4973366;28;20047;-69
2022/09/06 07:22:41;;;;;;;9.25;6.18;;;22.70;79.40;;;;;;4979487;28;20039;-70
2022/09/06 07:25:08;;;;;;;14.07;6.47;;;22.70;79.60;;;;;;4979590;28;20110;-70
2022/09/06 07:27:34;;;;;;;18.70;6.40;;;22.70;79.50;;;;;;4986804;28;20030;-69
2022/09/06 07:30:00;;;;;;;12.02;5.90;;;22.70;79.60;;;;;;4979671;28;20038;-69
2022/09/06 07:32:26;;;;;;;10.52;6.47;;;22.60;79.60;;;;;;4979298;28;20196;-70
2022/09/06 07:34:51;;;;;;;9.90;6.60;;;22.70;79.60;;;;;;4977828;28;20118;-69
2022/09/06 07:37:17;;;;;;;42.00;7.18;;;22.70;79.60;;;;;;4977486;28;20023;-69
2022/09/06 07:39:43;;;;;;;13.60;7.07;;;22.60;79.60;;;;;;4975159;28;20035;-70
2022/09/06 07:42:08;;;;;;;12.00;7.07;;;22.70;79.70;;;;;;4976192;28;20039;-71
2022/09/06 07:44:34;;;;;;;11.57;5.82;;;22.70;79.50;;;;;;4976500;28;20049;-69
2022/09/06 07:47:05;;;;;;;8.75;6.80;;;22.70;79.60;;;;;;4975893;28;20553;-69
2022/09/06 07:49:33;;;;;;;15.18;7.20;;;22.70;79.60;;;;;;4964345;28;20122;-69
2022/09/06 07:51:59;;;;;;;9.27;6.95;;;22.70;79.50;;;;;;4977357;28;20046;-70
2022/09/06 07:54:25;;;;;;;12.30;7.25;;;22.70;79.50;;;;;;4975587;28;20506;-70
2022/09/06 07:56:50;;;;;;;14.23;7.13;;;22.70;79.50;;;;;;4976452;28;20034;-69
2022/09/06 07:59:16;;;;;;;10.35;6.85;;;22.70;79.60;;;;;;4976991;28;20038;-69
2022/09/06 08:01:42;;;;;;;13.88;7.70;;;22.70;79.70;;;;;;4975258;28;20092;-70
2022/09/06 08:04:12;;;;;;;12.52;8.43;;;22.70;79.90;;;;;;4976332;28;20039;-69
2022/09/06 08:06:41;;;;;;;11.70;5.90;;;22.70;80.10;;;;;;4965133;28;20491;-69
2022/09/06 08:09:08;;;;;;;13.85;7.15;;;22.70;80.00;;;;;;4975554;28;20042;-70
2022/09/06 08:11:36;;;;;;;12.35;6.97;;;22.70;80.10;;;;;;4976193;28;20481;-70
2022/09/06 08:14:04;;;;;;;10.65;7.18;;;22.80;80.80;;;;;;4976780;28;20030;-69
2022/09/06 08:16:31;;;;;;;10.18;7.25;;;22.70;80.20;;;;;;4977559;28;20038;-69
2022/09/06 08:18:58;;;;;;;10.60;7.50;;;22.80;80.20;;;;;;4984862;28;20041;-69
2022/09/06 08:21:27;;;;;;;10.05;7.28;;;22.80;80.20;;;;;;4990290;28;20050;-69
2022/09/06 08:23:56;;;;;;;18.75;7.30;;;22.80;80.30;;;;;;4979990;28;20041;-69
2022/09/06 08:26:23;;;;;;;11.48;8.27;;;22.80;80.30;;;;;;4975521;28;20117;-69
2022/09/06 08:28:54;;;;;;;11.77;6.65;;;22.80;80.40;;;;;;4983597;28;20026;-69
2022/09/06 08:31:20;;;;;;;11.68;7.40;;;22.80;80.40;;;;;;4975710;28;20482;-71
2022/09/06 08:33:52;;;;;;;12.95;7.55;;;22.90;80.60;;;;;;4984876;28;20069;-69
2022/09/06 08:36:18;;;;;;;10.52;7.00;;;22.90;80.80;;;;;;4990378;28;20471;-70
2022/09/06 08:38:44;;;;;;;11.18;7.03;;;22.90;81.00;;;;;;4987072;28;20364;-70
2022/09/06 08:41:13;;;;;;;11.48;7.82;;;22.90;80.70;;;;;;4984276;28;20133;-70
2022/09/06 08:43:53;;;;;;;10.90;7.15;;;23.00;80.60;;;;;;4974732;28;20117;-69
2022/09/06 08:46:22;;;;;;;14.20;7.28;;;23.00;80.50;;;;;;4991115;28;20375;-69
2022/09/06 08:48:48;;;;;;;13.93;7.05;;;23.10;80.70;;;;;;4984202;28;20019;-70
2022/09/06 08:51:35;;;;;;;10.85;7.15;;;23.10;80.50;;;;;;4984679;28;20093;-70
2022/09/06 08:54:11;;;;;;;10.50;7.30;;;23.20;80.30;;;;;;4984012;28;20066;-70
2022/09/06 08:56:58;;;;;;;11.82;7.32;;;23.10;80.10;;;;;;4984312;28;20485;-69
2022/09/06 08:59:24;;;;;;;17.60;7.70;;;23.20;80.20;;;;;;4974846;28;20038;-70
2022/09/06 09:02:14;;;;;;;13.32;8.00;;;23.20;80.10;;;;;;4989960;28;20034;-70
2022/09/06 09:04:50;;;;;;;12.85;7.13;;;23.20;80.20;;;;;;4986823;28;20114;-70
2022/09/06 09:07:37;;;;;;;13.77;7.50;;;23.20;80.00;;;;;;4991423;28;20034;-70
2022/09/06 09:10:11;;;;;;;13.60;7.25;;;23.30;80.00;;;;;;4989452;28;20481;-70
2022/09/06 09:12:46;;;;;;;11.02;7.47;;;23.30;80.30;;;;;;4987264;28;20042;-74
2022/09/06 09:15:14;;;;;;;11.20;6.90;;;23.30;80.10;;;;;;4991549;28;20089;-69
2022/09/06 09:17:40;;;;;;;9.98;7.35;;;23.30;79.90;;;;;;4987441;28;20493;-69
2022/09/06 09:20:07;;;;;;;9.35;7.32;;;23.40;80.00;;;;;;4982142;28;20030;-69
2022/09/06 09:22:34;;;;;;;13.07;7.32;;;23.40;80.00;;;;;;4983802;28;20035;-69
2022/09/06 09:25:01;;;;;;;17.13;6.35;;;23.40;79.80;;;;;;4974895;28;20038;-67
2022/09/06 09:27:28;;;;;;;12.55;6.68;;;23.50;79.60;;;;;;4983728;28;20042;-67
2022/09/06 09:29:53;;;;;;;12.88;7.72;;;23.60;79.50;;;;;;4975157;28;20065;-67
2022/09/06 09:32:46;;;;;;;19.23;7.60;;;23.60;79.30;;;;;;4983442;28;20498;-67
2022/09/06 09:35:22;;;;;;;10.68;7.30;;;23.60;79.30;;;;;;4970763;28;20514;-67
2022/09/06 09:38:00;;;;;;;13.75;7.80;;;23.70;79.30;;;;;;4975397;28;20042;-68
2022/09/06 09:40:33;;;;;;;13.10;8.73;;;23.70;79.50;;;;;;4981060;28;20041;-67
2022/09/06 09:43:30;;;;;;;9.18;6.88;;;23.70;79.70;;;;;;4980393;28;20030;-67
2022/09/06 09:46:13;;;;;;;13.20;7.65;;;23.80;79.10;;;;;;4954118;28;20425;-68
2022/09/06 09:48:40;;;;;;;13.52;7.95;;;23.90;78.70;;;;;;4974306;28;20029;-68
2022/09/06 09:51:23;;;;;;;14.63;7.85;;;23.90;78.90;;;;;;4980519;28;20038;-68
2022/09/06 09:53:56;;;;;;;11.38;6.88;;;23.90;78.70;;;;;;4975111;28;20097;-68
2022/09/06 09:56:38;;;;;;;9.73;7.10;;;23.90;78.60;;;;;;4979899;28;20041;-69
2022/09/06 09:59:26;;;;;;;9.77;6.80;;;23.90;78.30;;;;;;4974705;28;20081;-68
2022/09/06 10:02:00;;;;;;;7.65;5.45;;;24.00;78.40;;;;;;4977706;28;20128;-68
2022/09/06 10:04:43;;;;;;;7.70;5.88;;;24.00;78.40;;;;;;4977558;28;20035;-68
2022/09/06 10:07:22;;;;;;;10.33;6.77;;;24.00;78.30;;;;;;4984567;28;20038;-68
2022/09/06 10:10:08;;;;;;;15.43;6.50;;;23.90;78.20;;;;;;4981866;28;20331;-68
2022/09/06 10:12:40;;;;;;;14.50;6.50;;;24.00;78.30;;;;;;4978848;28;20037;-68
2022/09/06 10:15:10;;;;;;;12.95;5.70;;;24.00;78.30;;;;;;4985083;28;20034;-68
2022/09/06 10:17:50;;;;;;;11.27;5.50;;;24.00;78.10;;;;;;4977243;28;20394;-68
2022/09/06 10:20:16;;;;;;;11.00;6.22;;;24.10;78.10;;;;;;4988203;28;20030;-70
2022/09/06 10:23:15;;;;;;;6.20;4.32;;;24.20;77.90;;;;;;4981943;28;20045;-72
2022/09/06 10:25:41;;;;;;;15.57;5.05;;;24.20;77.70;;;;;;4979326;28;20031;-68
2022/09/06 10:28:26;;;;;;;6.75;4.47;;;24.20;77.90;;;;;;4974549;28;20053;-68
2022/09/06 10:31:12;;;;;;;8.25;5.20;;;24.20;77.80;;;;;;4980021;28;20034;-68
2022/09/06 10:33:53;;;;;;;8.30;5.07;;;24.20;77.90;;;;;;4976635;28;20066;-69
2022/09/06 10:36:24;;;;;;;8.38;5.45;;;24.20;78.10;;;;;;4984032;28;20041;-68
2022/09/06 10:39:02;;;;;;;5.25;3.78;;;24.20;77.80;;;;;;4973493;28;20502;-68
2022/09/06 10:41:56;;;;;;;9.70;5.32;;;24.30;78.50;;;;;;4972997;28;20055;-68
2022/09/06 10:44:54;;;;;;;10.13;5.70;;;24.20;77.90;;;;;;4984555;28;20034;-68
2022/09/06 10:47:22;;;;;;;14.60;5.60;;;24.20;78.00;;;;;;4984149;28;20117;-68
2022/09/06 10:49:58;;;;;;;7.25;5.32;;;24.30;77.60;;;;;;4984655;28;20061;-68
2022/09/06 10:52:30;;;;;;;6.70;4.22;;;24.30;77.40;;;;;;4985853;28;20046;-69
2022/09/06 10:55:02;;;;;;;11.07;5.65;;;24.30;77.80;;;;;;4979685;28;20474;-68
2022/09/06 10:57:55;;;;;;;9.27;5.53;;;24.30;77.60;;;;;;4990931;28;20117;-69
2022/09/06 11:00:21;;;;;;;10.20;5.55;;;24.30;77.70;;;;;;4957829;28;20043;-69
2022/09/06 11:03:06;;;;;;;8.52;4.85;;;24.30;78.00;;;;;;4975130;28;20111;-71
2022/09/06 11:05:44;;;;;;;14.02;5.68;;;24.40;78.20;;;;;;4973094;28;20510;-69
2022/09/06 11:08:19;;;;;;;11.25;6.10;;;24.40;77.70;;;;;;4963590;28;20133;-69
2022/09/06 11:10:48;;;;;;;9.82;5.57;;;24.40;77.40;;;;;;4974019;28;20031;-69
2022/09/06 11:13:26;;;;;;;12.32;5.15;;;24.40;77.30;;;;;;4977775;28;20382;-69
2022/09/06 11:15:55;;;;;;;9.73;4.97;;;24.40;77.40;;;;;;4977187;28;20031;-70
2022/09/06 11:18:45;;;;;;;14.13;4.95;;;24.40;77.50;;;;;;4976855;28;20058;-69
2022/09/06 11:21:40;;;;;;;8.57;4.53;;;24.50;77.60;;;;;;4966490;28;20443;-69
2022/09/06 11:24:15;;;;;;;12.85;6.13;;;24.50;77.70;;;;;;4977074;28;20046;-68
2022/09/06 11:27:07;;;;;;;10.40;5.75;;;24.60;77.70;;;;;;4987830;28;20034;-68
2022/09/06 11:29:37;;;;;;;8.23;5.90;;;24.50;77.50;;;;;;4989295;28;20014;-68
2022/09/06 11:32:39;;;;;;;5.50;3.28;;;24.60;77.40;;;;;;4990976;28;20064;-68
2022/09/06 11:35:33;;;;;;;13.43;5.50;;;24.60;77.80;;;;;;4961666;28;20110;-68
2022/09/06 11:38:03;;;;;;;9.50;6.00;;;24.60;77.90;;;;;;4976299;28;20399;-68
2022/09/06 11:40:37;;;;;;;15.73;5.93;;;24.60;77.50;;;;;;4974654;28;20117;-68
2022/09/06 11:43:03;;;;;;;10.20;5.45;;;24.70;77.00;;;;;;4976113;28;20339;-68
2022/09/06 11:45:43;;;;;;;8.65;5.60;;;24.70;77.20;;;;;;4987202;28;20140;-69
2022/09/06 11:48:25;;;;;;;14.05;6.93;;;24.80;77.20;;;;;;4975913;28;20084;-68
2022/09/06 11:50:53;;;;;;;8.15;4.47;;;24.80;77.30;;;;;;4978641;28;20084;-68
2022/09/06 11:53:21;;;;;;;7.45;5.22;;;24.80;77.30;;;;;;4982398;28;20174;-68
2022/09/06 11:55:47;;;;;;;12.93;5.47;;;24.90;77.40;;;;;;4981320;28;20030;-68
2022/09/06 11:58:16;;;;;;;6.75;4.38;;;24.90;77.30;;;;;;4986014;28;20105;-69
2022/09/06 12:00:43;;;;;;;9.23;5.50;;;25.00;77.40;;;;;;4980512;28;20035;-68
2022/09/06 12:03:29;;;;;;;9.27;5.63;;;25.00;77.20;;;;;;4978178;28;20034;-69
2022/09/06 12:06:16;;;;;;;10.02;5.20;;;25.00;77.00;;;;;;4979516;28;20046;-69
2022/09/06 12:08:42;;;;;;;9.32;5.03;;;25.00;76.80;;;;;;4975348;28;20027;-68
2022/09/06 12:11:57;;;;;;;13.02;5.25;;;25.10;76.70;;;;;;4979216;28;20101;-68
2022/09/06 12:14:30;;;;;;;8.75;5.40;;;25.10;76.60;;;;;;4968294;28;20042;-67
2022/09/06 12:16:59;;;;;;;9.18;2.10;;;25.10;76.60;;;;;;4976584;28;20043;-68
2022/09/06 12:19:42;;;;;;;12.98;5.28;;;25.10;77.70;;;;;;4975934;28;20022;-68
2022/09/06 12:22:25;;;;;;;9.15;4.93;;;25.10;77.10;;;;;;4973911;28;20043;-68
2022/09/06 12:24:59;;;;;;;12.32;5.28;;;25.20;76.80;;;;;;4976206;28;20038;-68
2022/09/06 12:27:32;;;;;;;7.90;5.80;;;25.20;76.60;;;;;;4976473;28;20109;-67
2022/09/06 12:30:10;;;;;;;8.15;4.25;;;25.20;76.40;;;;;;4975340;28;20037;-68
2022/09/06 12:32:45;;;;;;;10.98;5.43;;;25.20;76.60;;;;;;4963338;28;20130;-68
2022/09/06 12:35:27;;;;;;;11.90;5.63;;;25.20;76.50;;;;;;4974064;28;20042;-68
2022/09/06 12:37:57;;;;;;;13.65;5.22;;;25.30;76.10;;;;;;4984994;28;20038;-67
2022/09/06 12:40:25;;;;;;;7.53;4.60;;;25.30;75.90;;;;;;4989254;28;20050;-68
2022/09/06 12:42:52;;;;;;;9.23;5.03;;;25.40;75.90;;;;;;4975205;28;20038;-68
2022/09/06 12:45:20;;;;;;;11.02;5.60;;;25.40;75.90;;;;;;4974699;28;20063;-68
2022/09/06 12:47:46;;;;;;;14.10;4.43;;;25.50;75.80;;;;;;4989483;28;20030;-69
2022/09/06 12:50:17;;;;;;;12.30;5.15;;;25.50;76.40;;;;;;4982029;28;20050;-68
2022/09/06 12:52:55;;;;;;;8.18;5.15;;;25.60;75.70;;;;;;4985142;28;20030;-69
2022/09/06 12:55:27;;;;;;;12.35;5.43;;;25.60;75.20;;;;;;4967355;28;20062;-67
2022/09/06 12:57:54;;;;;;;12.40;5.65;;;25.60;75.00;;;;;;4976939;28;20113;-69
2022/09/06 13:00:22;;;;;;;19.30;5.05;;;25.70;74.90;;;;;;4989100;28;20018;-70
2022/09/06 13:03:00;;;;;;;10.30;4.90;;;25.70;75.20;;;;;;4990738;28;20052;-70